sensor_id;sensor_type;location;lat;lon;timestamp;P1;durP1;ratioP1;P2;durP2;ratioP2
44885;SDS011;36669;51.428;21.162;2022-08-21T00:00:26;7.30;;;5.45;;
44885;SDS011;36669;51.428;21.162;2022-08-21T00:02:54;10.00;;;5.53;;
44885;SDS011;36669;51.428;21.162;2022-08-21T00:05:34;8.43;;;5.75;;
44885;SDS011;36669;51.428;21.162;2022-08-21T00:08:02;13.45;;;5.93;;
44885;SDS011;36669;51.428;21.162;2022-08-21T00:10:28;10.05;;;6.00;;
44885;SDS011;36669;51.428;21.162;2022-08-21T00:12:55;8.20;;;6.03;;
44885;SDS011;36669;51.428;21.162;2022-08-21T00:15:25;8.10;;;5.70;;
44885;SDS011;36669;51.428;21.162;2022-08-21T00:17:52;8.38;;;6.07;;
44885;SDS011;36669;51.428;21.162;2022-08-21T00:20:19;11.98;;;6.05;;
44885;SDS011;36669;51.428;21.162;2022-08-21T00:22:45;10.20;;;6.55;;
44885;SDS011;36669;51.428;21.162;2022-08-21T00:25:11;6.78;;;5.75;;
44885;SDS011;36669;51.428;21.162;2022-08-21T00:27:39;10.70;;;5.88;;
44885;SDS011;36669;51.428;21.162;2022-08-21T00:30:07;9.13;;;6.00;;
44885;SDS011;36669;51.428;21.162;2022-08-21T00:32:36;11.50;;;6.28;;
44885;SDS011;36669;51.428;21.162;2022-08-21T00:35:05;9.50;;;6.25;;
44885;SDS011;36669;51.428;21.162;2022-08-21T00:37:35;13.73;;;6.55;;
44885;SDS011;36669;51.428;21.162;2022-08-21T00:40:01;10.85;;;6.38;;
44885;SDS011;36669;51.428;21.162;2022-08-21T00:42:28;11.98;;;6.00;;
44885;SDS011;36669;51.428;21.162;2022-08-21T00:44:55;8.93;;;6.45;;
44885;SDS011;36669;51.428;21.162;2022-08-21T00:47:22;11.10;;;6.50;;
44885;SDS011;36669;51.428;21.162;2022-08-21T00:49:48;7.45;;;5.95;;
44885;SDS011;36669;51.428;21.162;2022-08-21T00:52:15;7.95;;;6.30;;
44885;SDS011;36669;51.428;21.162;2022-08-21T00:54:47;12.40;;;6.47;;
44885;SDS011;36669;51.428;21.162;2022-08-21T00:57:15;7.90;;;6.38;;
44885;SDS011;36669;51.428;21.162;2022-08-21T00:59:45;10.27;;;6.30;;
44885;SDS011;36669;51.428;21.162;2022-08-21T01:02:15;9.00;;;5.93;;
44885;SDS011;36669;51.428;21.162;2022-08-21T01:04:42;7.57;;;6.07;;
44885;SDS011;36669;51.428;21.162;2022-08-21T01:07:07;9.02;;;6.50;;
44885;SDS011;36669;51.428;21.162;2022-08-21T01:09:33;9.45;;;6.70;;
44885;SDS011;36669;51.428;21.162;2022-08-21T01:11:59;8.60;;;6.75;;
44885;SDS011;36669;51.428;21.162;2022-08-21T01:14:25;9.80;;;7.10;;
44885;SDS011;36669;51.428;21.162;2022-08-21T01:16:52;13.65;;;7.53;;
44885;SDS011;36669;51.428;21.162;2022-08-21T01:19:20;12.32;;;6.72;;
44885;SDS011;36669;51.428;21.162;2022-08-21T01:21:46;10.70;;;6.47;;
44885;SDS011;36669;51.428;21.162;2022-08-21T01:24:12;11.50;;;6.47;;
44885;SDS011;36669;51.428;21.162;2022-08-21T01:26:38;9.20;;;6.63;;
44885;SDS011;36669;51.428;21.162;2022-08-21T01:31:51;10.48;;;6.70;;
44885;SDS011;36669;51.428;21.162;2022-08-21T01:34:17;9.77;;;6.75;;
44885;SDS011;36669;51.428;21.162;2022-08-21T01:36:44;9.07;;;6.88;;
44885;SDS011;36669;51.428;21.162;2022-08-21T01:39:10;10.77;;;6.72;;
44885;SDS011;36669;51.428;21.162;2022-08-21T01:41:36;9.30;;;6.43;;
44885;SDS011;36669;51.428;21.162;2022-08-21T01:44:02;13.10;;;7.10;;
44885;SDS011;36669;51.428;21.162;2022-08-21T01:46:28;12.15;;;7.07;;
44885;SDS011;36669;51.428;21.162;2022-08-21T01:48:54;11.77;;;6.90;;
44885;SDS011;36669;51.428;21.162;2022-08-21T01:51:20;12.32;;;6.95;;
44885;SDS011;36669;51.428;21.162;2022-08-21T01:53:45;12.38;;;6.95;;
44885;SDS011;36669;51.428;21.162;2022-08-21T01:56:12;10.05;;;6.80;;
44885;SDS011;36669;51.428;21.162;2022-08-21T01:58:39;12.93;;;6.97;;
44885;SDS011;36669;51.428;21.162;2022-08-21T02:01:06;10.90;;;6.85;;
44885;SDS011;36669;51.428;21.162;2022-08-21T02:03:32;10.57;;;7.25;;
44885;SDS011;36669;51.428;21.162;2022-08-21T02:05:57;11.43;;;7.50;;
44885;SDS011;36669;51.428;21.162;2022-08-21T02:08:23;12.38;;;7.63;;
44885;SDS011;36669;51.428;21.162;2022-08-21T02:10:50;10.15;;;7.10;;
44885;SDS011;36669;51.428;21.162;2022-08-21T02:13:16;12.15;;;7.35;;
44885;SDS011;36669;51.428;21.162;2022-08-21T02:15:44;14.45;;;7.78;;
44885;SDS011;36669;51.428;21.162;2022-08-21T02:18:09;10.48;;;7.70;;
44885;SDS011;36669;51.428;21.162;2022-08-21T02:20:37;11.63;;;7.95;;
44885;SDS011;36669;51.428;21.162;2022-08-21T02:23:10;11.23;;;7.43;;
44885;SDS011;36669;51.428;21.162;2022-08-21T02:25:37;10.88;;;7.78;;
44885;SDS011;36669;51.428;21.162;2022-08-21T02:28:06;11.90;;;7.63;;
44885;SDS011;36669;51.428;21.162;2022-08-21T02:30:39;10.02;;;7.07;;
44885;SDS011;36669;51.428;21.162;2022-08-21T02:33:08;10.45;;;7.57;;
44885;SDS011;36669;51.428;21.162;2022-08-21T02:35:34;11.57;;;7.97;;
44885;SDS011;36669;51.428;21.162;2022-08-21T02:38:02;11.15;;;8.35;;
44885;SDS011;36669;51.428;21.162;2022-08-21T02:40:32;12.73;;;8.35;;
44885;SDS011;36669;51.428;21.162;2022-08-21T02:43:00;11.30;;;7.97;;
44885;SDS011;36669;51.428;21.162;2022-08-21T02:45:27;11.65;;;8.07;;
44885;SDS011;36669;51.428;21.162;2022-08-21T02:48:00;17.38;;;9.30;;
44885;SDS011;36669;51.428;21.162;2022-08-21T02:50:28;14.57;;;8.48;;
44885;SDS011;36669;51.428;21.162;2022-08-21T02:53:03;13.30;;;8.85;;
44885;SDS011;36669;51.428;21.162;2022-08-21T02:55:31;15.07;;;9.88;;
44885;SDS011;36669;51.428;21.162;2022-08-21T02:57:58;17.80;;;9.90;;
44885;SDS011;36669;51.428;21.162;2022-08-21T03:00:26;19.33;;;9.60;;
44885;SDS011;36669;51.428;21.162;2022-08-21T03:02:53;15.23;;;9.98;;
44885;SDS011;36669;51.428;21.162;2022-08-21T03:05:21;14.60;;;9.88;;
44885;SDS011;36669;51.428;21.162;2022-08-21T03:07:48;14.82;;;9.07;;
44885;SDS011;36669;51.428;21.162;2022-08-21T03:10:14;12.75;;;9.27;;
44885;SDS011;36669;51.428;21.162;2022-08-21T03:12:41;13.55;;;9.32;;
44885;SDS011;36669;51.428;21.162;2022-08-21T03:15:08;14.02;;;9.57;;
44885;SDS011;36669;51.428;21.162;2022-08-21T03:17:35;14.27;;;9.38;;
44885;SDS011;36669;51.428;21.162;2022-08-21T03:20:02;14.38;;;9.85;;
44885;SDS011;36669;51.428;21.162;2022-08-21T03:22:31;16.00;;;12.27;;
44885;SDS011;36669;51.428;21.162;2022-08-21T03:24:57;16.73;;;11.55;;
44885;SDS011;36669;51.428;21.162;2022-08-21T03:27:23;16.67;;;8.77;;
44885;SDS011;36669;51.428;21.162;2022-08-21T03:29:49;17.67;;;9.27;;
44885;SDS011;36669;51.428;21.162;2022-08-21T03:32:15;19.02;;;11.13;;
44885;SDS011;36669;51.428;21.162;2022-08-21T03:34:40;14.20;;;10.05;;
44885;SDS011;36669;51.428;21.162;2022-08-21T03:37:06;17.50;;;11.25;;
44885;SDS011;36669;51.428;21.162;2022-08-21T03:39:33;24.38;;;18.58;;
44885;SDS011;36669;51.428;21.162;2022-08-21T03:41:59;22.83;;;14.75;;
44885;SDS011;36669;51.428;21.162;2022-08-21T03:44:24;27.98;;;19.90;;
44885;SDS011;36669;51.428;21.162;2022-08-21T03:46:50;14.38;;;10.57;;
44885;SDS011;36669;51.428;21.162;2022-08-21T03:49:16;17.23;;;11.07;;
44885;SDS011;36669;51.428;21.162;2022-08-21T03:51:41;14.85;;;10.65;;
44885;SDS011;36669;51.428;21.162;2022-08-21T03:54:07;21.63;;;17.38;;
44885;SDS011;36669;51.428;21.162;2022-08-21T03:56:32;16.67;;;12.07;;
44885;SDS011;36669;51.428;21.162;2022-08-21T03:58:58;15.27;;;11.57;;
44885;SDS011;36669;51.428;21.162;2022-08-21T04:01:23;12.40;;;9.15;;
44885;SDS011;36669;51.428;21.162;2022-08-21T04:03:49;18.83;;;11.88;;
44885;SDS011;36669;51.428;21.162;2022-08-21T04:06:15;18.80;;;11.45;;
44885;SDS011;36669;51.428;21.162;2022-08-21T04:08:40;13.18;;;9.25;;
44885;SDS011;36669;51.428;21.162;2022-08-21T04:11:07;17.60;;;11.32;;
44885;SDS011;36669;51.428;21.162;2022-08-21T04:13:33;15.23;;;10.40;;
44885;SDS011;36669;51.428;21.162;2022-08-21T04:15:59;13.30;;;10.40;;
44885;SDS011;36669;51.428;21.162;2022-08-21T04:18:24;17.33;;;10.02;;
44885;SDS011;36669;51.428;21.162;2022-08-21T04:20:51;13.85;;;10.07;;
44885;SDS011;36669;51.428;21.162;2022-08-21T04:23:18;13.13;;;10.05;;
44885;SDS011;36669;51.428;21.162;2022-08-21T04:25:45;14.88;;;10.30;;
44885;SDS011;36669;51.428;21.162;2022-08-21T04:28:10;13.95;;;10.35;;
44885;SDS011;36669;51.428;21.162;2022-08-21T04:30:36;19.60;;;11.40;;
44885;SDS011;36669;51.428;21.162;2022-08-21T04:33:01;16.25;;;10.45;;
44885;SDS011;36669;51.428;21.162;2022-08-21T04:35:27;12.52;;;9.75;;
44885;SDS011;36669;51.428;21.162;2022-08-21T04:37:53;15.50;;;10.30;;
44885;SDS011;36669;51.428;21.162;2022-08-21T04:40:20;16.90;;;10.55;;
44885;SDS011;36669;51.428;21.162;2022-08-21T04:42:52;15.75;;;10.82;;
44885;SDS011;36669;51.428;21.162;2022-08-21T04:45:24;11.75;;;10.18;;
44885;SDS011;36669;51.428;21.162;2022-08-21T04:47:53;13.70;;;10.77;;
44885;SDS011;36669;51.428;21.162;2022-08-21T04:50:22;13.82;;;9.88;;
44885;SDS011;36669;51.428;21.162;2022-08-21T04:52:50;16.20;;;10.52;;
44885;SDS011;36669;51.428;21.162;2022-08-21T04:55:16;12.50;;;10.15;;
44885;SDS011;36669;51.428;21.162;2022-08-21T04:57:44;17.75;;;10.45;;
44885;SDS011;36669;51.428;21.162;2022-08-21T05:00:10;14.40;;;10.05;;
44885;SDS011;36669;51.428;21.162;2022-08-21T05:02:36;15.32;;;9.98;;
44885;SDS011;36669;51.428;21.162;2022-08-21T05:05:02;12.10;;;10.52;;
44885;SDS011;36669;51.428;21.162;2022-08-21T05:07:29;15.00;;;10.75;;
44885;SDS011;36669;51.428;21.162;2022-08-21T05:09:57;12.75;;;9.57;;
44885;SDS011;36669;51.428;21.162;2022-08-21T05:12:24;12.95;;;10.98;;
44885;SDS011;36669;51.428;21.162;2022-08-21T05:14:49;15.75;;;9.77;;
44885;SDS011;36669;51.428;21.162;2022-08-21T05:17:15;16.10;;;11.02;;
44885;SDS011;36669;51.428;21.162;2022-08-21T05:19:40;16.20;;;10.95;;
44885;SDS011;36669;51.428;21.162;2022-08-21T05:22:07;13.52;;;10.48;;
44885;SDS011;36669;51.428;21.162;2022-08-21T05:24:33;15.45;;;10.00;;
44885;SDS011;36669;51.428;21.162;2022-08-21T05:26:58;14.15;;;10.82;;
44885;SDS011;36669;51.428;21.162;2022-08-21T05:29:24;18.05;;;12.50;;
44885;SDS011;36669;51.428;21.162;2022-08-21T05:31:50;16.33;;;11.13;;
44885;SDS011;36669;51.428;21.162;2022-08-21T05:34:22;11.48;;;9.27;;
44885;SDS011;36669;51.428;21.162;2022-08-21T05:36:48;12.60;;;9.40;;
44885;SDS011;36669;51.428;21.162;2022-08-21T05:39:13;10.38;;;9.25;;
44885;SDS011;36669;51.428;21.162;2022-08-21T05:41:39;15.73;;;9.38;;
44885;SDS011;36669;51.428;21.162;2022-08-21T05:44:05;12.63;;;9.48;;
44885;SDS011;36669;51.428;21.162;2022-08-21T05:46:30;18.70;;;9.55;;
44885;SDS011;36669;51.428;21.162;2022-08-21T05:48:56;12.85;;;10.40;;
44885;SDS011;36669;51.428;21.162;2022-08-21T05:51:21;16.33;;;9.10;;
44885;SDS011;36669;51.428;21.162;2022-08-21T05:53:47;12.35;;;8.18;;
44885;SDS011;36669;51.428;21.162;2022-08-21T05:56:14;12.48;;;8.43;;
44885;SDS011;36669;51.428;21.162;2022-08-21T05:58:39;13.88;;;9.00;;
44885;SDS011;36669;51.428;21.162;2022-08-21T06:01:05;16.88;;;11.23;;
44885;SDS011;36669;51.428;21.162;2022-08-21T06:03:32;13.70;;;11.35;;
44885;SDS011;36669;51.428;21.162;2022-08-21T06:05:59;14.60;;;10.80;;
44885;SDS011;36669;51.428;21.162;2022-08-21T06:08:26;16.38;;;12.32;;
44885;SDS011;36669;51.428;21.162;2022-08-21T06:10:53;15.73;;;12.75;;
44885;SDS011;36669;51.428;21.162;2022-08-21T06:13:20;14.07;;;10.98;;
44885;SDS011;36669;51.428;21.162;2022-08-21T06:15:46;14.00;;;8.45;;
44885;SDS011;36669;51.428;21.162;2022-08-21T06:18:12;13.57;;;8.30;;
44885;SDS011;36669;51.428;21.162;2022-08-21T06:20:38;9.38;;;8.32;;
44885;SDS011;36669;51.428;21.162;2022-08-21T06:23:04;11.30;;;7.63;;
44885;SDS011;36669;51.428;21.162;2022-08-21T06:25:30;11.35;;;7.25;;
44885;SDS011;36669;51.428;21.162;2022-08-21T06:28:08;9.00;;;7.18;;
44885;SDS011;36669;51.428;21.162;2022-08-21T06:30:35;10.27;;;7.03;;
44885;SDS011;36669;51.428;21.162;2022-08-21T06:33:02;11.48;;;7.20;;
44885;SDS011;36669;51.428;21.162;2022-08-21T06:35:28;11.25;;;7.25;;
44885;SDS011;36669;51.428;21.162;2022-08-21T06:37:54;10.13;;;6.95;;
44885;SDS011;36669;51.428;21.162;2022-08-21T06:40:20;8.43;;;6.68;;
44885;SDS011;36669;51.428;21.162;2022-08-21T06:42:46;10.77;;;6.40;;
44885;SDS011;36669;51.428;21.162;2022-08-21T06:45:12;8.98;;;6.75;;
44885;SDS011;36669;51.428;21.162;2022-08-21T06:47:38;10.25;;;6.25;;
44885;SDS011;36669;51.428;21.162;2022-08-21T06:50:04;12.02;;;6.13;;
44885;SDS011;36669;51.428;21.162;2022-08-21T06:52:30;13.07;;;6.80;;
44885;SDS011;36669;51.428;21.162;2022-08-21T06:54:57;8.90;;;6.10;;
44885;SDS011;36669;51.428;21.162;2022-08-21T06:57:23;11.25;;;6.38;;
44885;SDS011;36669;51.428;21.162;2022-08-21T06:59:48;10.13;;;6.10;;
44885;SDS011;36669;51.428;21.162;2022-08-21T07:02:14;8.50;;;5.82;;
44885;SDS011;36669;51.428;21.162;2022-08-21T07:04:39;9.25;;;6.00;;
44885;SDS011;36669;51.428;21.162;2022-08-21T07:07:05;8.77;;;5.75;;
44885;SDS011;36669;51.428;21.162;2022-08-21T07:09:30;7.47;;;5.32;;
44885;SDS011;36669;51.428;21.162;2022-08-21T07:11:56;11.60;;;6.05;;
44885;SDS011;36669;51.428;21.162;2022-08-21T07:14:21;7.20;;;5.60;;
44885;SDS011;36669;51.428;21.162;2022-08-21T07:16:48;10.75;;;6.40;;
44885;SDS011;36669;51.428;21.162;2022-08-21T07:19:14;10.73;;;5.65;;
44885;SDS011;36669;51.428;21.162;2022-08-21T07:21:41;11.07;;;6.10;;
44885;SDS011;36669;51.428;21.162;2022-08-21T07:24:06;7.88;;;5.78;;
44885;SDS011;36669;51.428;21.162;2022-08-21T07:26:32;11.73;;;5.80;;
44885;SDS011;36669;51.428;21.162;2022-08-21T07:28:57;9.50;;;6.13;;
44885;SDS011;36669;51.428;21.162;2022-08-21T07:31:23;9.57;;;5.70;;
44885;SDS011;36669;51.428;21.162;2022-08-21T07:33:50;9.65;;;5.40;;
44885;SDS011;36669;51.428;21.162;2022-08-21T07:36:16;10.35;;;7.00;;
44885;SDS011;36669;51.428;21.162;2022-08-21T07:38:41;11.13;;;6.07;;
44885;SDS011;36669;51.428;21.162;2022-08-21T07:41:10;9.48;;;5.45;;
44885;SDS011;36669;51.428;21.162;2022-08-21T07:43:40;7.97;;;5.60;;
44885;SDS011;36669;51.428;21.162;2022-08-21T07:46:05;10.82;;;5.70;;
44885;SDS011;36669;51.428;21.162;2022-08-21T07:48:31;9.25;;;5.35;;
44885;SDS011;36669;51.428;21.162;2022-08-21T07:51:05;8.23;;;5.30;;
44885;SDS011;36669;51.428;21.162;2022-08-21T07:53:32;6.03;;;5.07;;
44885;SDS011;36669;51.428;21.162;2022-08-21T07:55:58;10.88;;;5.63;;
44885;SDS011;36669;51.428;21.162;2022-08-21T07:58:24;7.82;;;4.70;;
44885;SDS011;36669;51.428;21.162;2022-08-21T08:00:50;7.57;;;5.47;;
44885;SDS011;36669;51.428;21.162;2022-08-21T08:03:15;8.90;;;4.80;;
44885;SDS011;36669;51.428;21.162;2022-08-21T08:05:41;7.82;;;4.97;;
44885;SDS011;36669;51.428;21.162;2022-08-21T08:08:06;8.43;;;4.95;;
44885;SDS011;36669;51.428;21.162;2022-08-21T08:10:33;9.38;;;4.80;;
44885;SDS011;36669;51.428;21.162;2022-08-21T08:13:01;8.63;;;4.95;;
44885;SDS011;36669;51.428;21.162;2022-08-21T08:15:27;9.73;;;5.15;;
44885;SDS011;36669;51.428;21.162;2022-08-21T08:17:53;14.07;;;5.43;;
44885;SDS011;36669;51.428;21.162;2022-08-21T08:20:19;8.88;;;4.75;;
44885;SDS011;36669;51.428;21.162;2022-08-21T08:22:45;7.10;;;4.72;;
44885;SDS011;36669;51.428;21.162;2022-08-21T08:25:11;7.82;;;4.32;;
44885;SDS011;36669;51.428;21.162;2022-08-21T08:27:38;8.32;;;4.60;;
44885;SDS011;36669;51.428;21.162;2022-08-21T08:30:05;8.73;;;4.57;;
44885;SDS011;36669;51.428;21.162;2022-08-21T08:32:32;6.75;;;4.50;;
44885;SDS011;36669;51.428;21.162;2022-08-21T08:34:58;5.45;;;4.13;;
44885;SDS011;36669;51.428;21.162;2022-08-21T08:37:24;10.68;;;5.20;;
44885;SDS011;36669;51.428;21.162;2022-08-21T08:39:49;10.73;;;5.03;;
44885;SDS011;36669;51.428;21.162;2022-08-21T08:42:17;9.35;;;5.07;;
44885;SDS011;36669;51.428;21.162;2022-08-21T08:45:00;13.70;;;5.85;;
44885;SDS011;36669;51.428;21.162;2022-08-21T08:47:32;8.30;;;4.65;;
44885;SDS011;36669;51.428;21.162;2022-08-21T08:50:13;6.53;;;4.63;;
44885;SDS011;36669;51.428;21.162;2022-08-21T08:52:41;7.30;;;4.25;;
44885;SDS011;36669;51.428;21.162;2022-08-21T08:55:17;6.13;;;4.00;;
44885;SDS011;36669;51.428;21.162;2022-08-21T08:57:46;6.55;;;4.70;;
44885;SDS011;36669;51.428;21.162;2022-08-21T09:00:14;7.72;;;4.90;;
44885;SDS011;36669;51.428;21.162;2022-08-21T09:02:42;8.80;;;4.40;;
44885;SDS011;36669;51.428;21.162;2022-08-21T09:05:20;14.43;;;4.70;;
44885;SDS011;36669;51.428;21.162;2022-08-21T09:10:48;5.88;;;4.82;;
44885;SDS011;36669;51.428;21.162;2022-08-21T09:13:26;7.82;;;4.50;;
44885;SDS011;36669;51.428;21.162;2022-08-21T09:16:08;8.40;;;5.07;;
44885;SDS011;36669;51.428;21.162;2022-08-21T09:18:52;8.85;;;4.93;;
44885;SDS011;36669;51.428;21.162;2022-08-21T09:24:29;8.27;;;4.90;;
44885;SDS011;36669;51.428;21.162;2022-08-21T09:27:09;7.57;;;4.82;;
44885;SDS011;36669;51.428;21.162;2022-08-21T09:29:37;7.32;;;4.68;;
44885;SDS011;36669;51.428;21.162;2022-08-21T09:32:09;9.45;;;4.07;;
44885;SDS011;36669;51.428;21.162;2022-08-21T09:37:27;4.68;;;4.00;;
44885;SDS011;36669;51.428;21.162;2022-08-21T09:39:54;5.45;;;3.90;;
44885;SDS011;36669;51.428;21.162;2022-08-21T09:42:22;10.40;;;4.80;;
44885;SDS011;36669;51.428;21.162;2022-08-21T09:45:05;5.85;;;3.75;;
44885;SDS011;36669;51.428;21.162;2022-08-21T09:47:31;7.55;;;5.00;;
44885;SDS011;36669;51.428;21.162;2022-08-21T09:50:06;7.47;;;5.18;;
44885;SDS011;36669;51.428;21.162;2022-08-21T09:52:41;7.28;;;3.67;;
44885;SDS011;36669;51.428;21.162;2022-08-21T09:55:18;3.58;;;3.28;;
44885;SDS011;36669;51.428;21.162;2022-08-21T09:57:46;5.45;;;4.05;;
44885;SDS011;36669;51.428;21.162;2022-08-21T10:00:26;8.15;;;3.80;;
44885;SDS011;36669;51.428;21.162;2022-08-21T10:08:25;5.28;;;3.85;;
44885;SDS011;36669;51.428;21.162;2022-08-21T10:10:57;5.38;;;3.40;;
44885;SDS011;36669;51.428;21.162;2022-08-21T10:16:36;15.40;;;3.53;;
44885;SDS011;36669;51.428;21.162;2022-08-21T10:19:27;4.80;;;3.13;;
44885;SDS011;36669;51.428;21.162;2022-08-21T10:25:07;14.27;;;3.30;;
44885;SDS011;36669;51.428;21.162;2022-08-21T10:30:36;6.03;;;3.47;;
44885;SDS011;36669;51.428;21.162;2022-08-21T10:44:21;7.18;;;3.60;;
44885;SDS011;36669;51.428;21.162;2022-08-21T10:49:48;6.47;;;3.28;;
44885;SDS011;36669;51.428;21.162;2022-08-21T11:00:12;6.32;;;3.63;;
44885;SDS011;36669;51.428;21.162;2022-08-21T11:03:01;6.20;;;3.17;;
44885;SDS011;36669;51.428;21.162;2022-08-21T11:06:06;8.82;;;4.38;;
44885;SDS011;36669;51.428;21.162;2022-08-21T11:08:30;7.97;;;3.28;;
44885;SDS011;36669;51.428;21.162;2022-08-21T11:11:06;11.30;;;4.47;;
44885;SDS011;36669;51.428;21.162;2022-08-21T11:13:55;3.80;;;3.17;;
44885;SDS011;36669;51.428;21.162;2022-08-21T11:16:47;7.50;;;3.95;;
44885;SDS011;36669;51.428;21.162;2022-08-21T11:19:22;5.80;;;3.35;;
44885;SDS011;36669;51.428;21.162;2022-08-21T11:25:08;7.28;;;3.28;;
44885;SDS011;36669;51.428;21.162;2022-08-21T11:27:48;5.38;;;3.20;;
44885;SDS011;36669;51.428;21.162;2022-08-21T11:30:19;6.28;;;2.95;;
44885;SDS011;36669;51.428;21.162;2022-08-21T11:36:02;6.03;;;2.80;;
44885;SDS011;36669;51.428;21.162;2022-08-21T11:43:49;3.97;;;2.63;;
44885;SDS011;36669;51.428;21.162;2022-08-21T11:49:27;4.70;;;2.63;;
44885;SDS011;36669;51.428;21.162;2022-08-21T11:52:18;3.42;;;2.50;;
44885;SDS011;36669;51.428;21.162;2022-08-21T11:54:49;6.55;;;3.25;;
44885;SDS011;36669;51.428;21.162;2022-08-21T11:57:50;3.15;;;2.53;;
44885;SDS011;36669;51.428;21.162;2022-08-21T12:00:22;2.90;;;2.60;;
44885;SDS011;36669;51.428;21.162;2022-08-21T12:03:13;3.75;;;2.95;;
44885;SDS011;36669;51.428;21.162;2022-08-21T12:05:52;3.95;;;2.75;;
44885;SDS011;36669;51.428;21.162;2022-08-21T12:11:43;4.30;;;3.25;;
44885;SDS011;36669;51.428;21.162;2022-08-21T12:13:54;5.88;;;2.80;;
44885;SDS011;36669;51.428;21.162;2022-08-21T12:16:37;4.60;;;2.70;;
44885;SDS011;36669;51.428;21.162;2022-08-21T12:19:05;6.32;;;3.72;;
44885;SDS011;36669;51.428;21.162;2022-08-21T12:21:31;4.25;;;2.70;;
44885;SDS011;36669;51.428;21.162;2022-08-21T12:24:05;3.90;;;2.95;;
44885;SDS011;36669;51.428;21.162;2022-08-21T12:34:35;3.20;;;2.53;;
44885;SDS011;36669;51.428;21.162;2022-08-21T12:37:39;4.60;;;2.80;;
44885;SDS011;36669;51.428;21.162;2022-08-21T12:40:11;5.20;;;2.47;;
44885;SDS011;36669;51.428;21.162;2022-08-21T12:42:47;7.22;;;2.58;;
44885;SDS011;36669;51.428;21.162;2022-08-21T12:48:06;6.05;;;2.60;;
44885;SDS011;36669;51.428;21.162;2022-08-21T12:50:53;5.13;;;2.58;;
44885;SDS011;36669;51.428;21.162;2022-08-21T12:53:25;3.63;;;2.85;;
44885;SDS011;36669;51.428;21.162;2022-08-21T12:56:08;3.53;;;2.47;;
44885;SDS011;36669;51.428;21.162;2022-08-21T12:58:39;5.55;;;2.70;;
44885;SDS011;36669;51.428;21.162;2022-08-21T13:01:29;3.80;;;2.50;;
44885;SDS011;36669;51.428;21.162;2022-08-21T13:04:13;5.20;;;2.40;;
44885;SDS011;36669;51.428;21.162;2022-08-21T13:06:44;5.50;;;2.55;;
44885;SDS011;36669;51.428;21.162;2022-08-21T13:09:12;4.88;;;2.40;;
44885;SDS011;36669;51.428;21.162;2022-08-21T13:11:41;3.53;;;2.60;;
44885;SDS011;36669;51.428;21.162;2022-08-21T13:14:13;3.95;;;2.33;;
44885;SDS011;36669;51.428;21.162;2022-08-21T13:16:52;4.25;;;2.50;;
44885;SDS011;36669;51.428;21.162;2022-08-21T13:19:19;5.40;;;2.80;;
44885;SDS011;36669;51.428;21.162;2022-08-21T13:21:45;3.78;;;2.50;;
44885;SDS011;36669;51.428;21.162;2022-08-21T13:24:24;4.95;;;2.33;;
44885;SDS011;36669;51.428;21.162;2022-08-21T13:26:51;2.97;;;2.70;;
44885;SDS011;36669;51.428;21.162;2022-08-21T13:29:18;6.55;;;2.60;;
44885;SDS011;36669;51.428;21.162;2022-08-21T13:31:51;2.88;;;2.58;;
44885;SDS011;36669;51.428;21.162;2022-08-21T13:34:22;4.95;;;2.88;;
44885;SDS011;36669;51.428;21.162;2022-08-21T13:36:56;5.32;;;2.83;;
44885;SDS011;36669;51.428;21.162;2022-08-21T13:39:25;3.92;;;2.80;;
44885;SDS011;36669;51.428;21.162;2022-08-21T13:41:52;4.68;;;2.63;;
44885;SDS011;36669;51.428;21.162;2022-08-21T13:44:22;4.60;;;3.00;;
44885;SDS011;36669;51.428;21.162;2022-08-21T13:47:02;4.47;;;2.70;;
44885;SDS011;36669;51.428;21.162;2022-08-21T13:49:32;7.20;;;3.10;;
44885;SDS011;36669;51.428;21.162;2022-08-21T13:52:00;5.60;;;3.10;;
44885;SDS011;36669;51.428;21.162;2022-08-21T13:54:34;4.03;;;3.03;;
44885;SDS011;36669;51.428;21.162;2022-08-21T13:57:02;7.43;;;3.17;;
44885;SDS011;36669;51.428;21.162;2022-08-21T13:59:35;3.88;;;2.67;;
44885;SDS011;36669;51.428;21.162;2022-08-21T14:02:02;3.57;;;2.73;;
44885;SDS011;36669;51.428;21.162;2022-08-21T14:04:37;3.42;;;2.85;;
44885;SDS011;36669;51.428;21.162;2022-08-21T14:07:19;3.17;;;2.67;;
44885;SDS011;36669;51.428;21.162;2022-08-21T14:09:51;7.15;;;3.10;;
44885;SDS011;36669;51.428;21.162;2022-08-21T14:12:19;4.55;;;3.40;;
44885;SDS011;36669;51.428;21.162;2022-08-21T14:14:51;3.60;;;2.30;;
44885;SDS011;36669;51.428;21.162;2022-08-21T14:17:31;3.90;;;2.80;;
44885;SDS011;36669;51.428;21.162;2022-08-21T14:20:03;6.40;;;2.92;;
44885;SDS011;36669;51.428;21.162;2022-08-21T14:22:36;2.60;;;2.40;;
44885;SDS011;36669;51.428;21.162;2022-08-21T14:27:33;6.50;;;3.35;;
44885;SDS011;36669;51.428;21.162;2022-08-21T14:30:07;4.05;;;2.60;;
44885;SDS011;36669;51.428;21.162;2022-08-21T14:32:41;7.35;;;3.20;;
44885;SDS011;36669;51.428;21.162;2022-08-21T14:35:07;4.18;;;3.15;;
44885;SDS011;36669;51.428;21.162;2022-08-21T14:37:33;4.68;;;2.60;;
44885;SDS011;36669;51.428;21.162;2022-08-21T14:39:59;3.80;;;2.80;;
44885;SDS011;36669;51.428;21.162;2022-08-21T14:42:25;5.25;;;2.40;;
44885;SDS011;36669;51.428;21.162;2022-08-21T14:44:51;2.83;;;2.35;;
44885;SDS011;36669;51.428;21.162;2022-08-21T14:47:20;3.55;;;2.50;;
44885;SDS011;36669;51.428;21.162;2022-08-21T14:49:45;4.68;;;2.53;;
44885;SDS011;36669;51.428;21.162;2022-08-21T14:52:11;3.20;;;2.50;;
44885;SDS011;36669;51.428;21.162;2022-08-21T14:54:36;6.15;;;2.67;;
44885;SDS011;36669;51.428;21.162;2022-08-21T14:57:06;2.63;;;2.30;;
44885;SDS011;36669;51.428;21.162;2022-08-21T14:59:34;3.45;;;2.50;;
44885;SDS011;36669;51.428;21.162;2022-08-21T15:02:01;2.97;;;2.50;;
44885;SDS011;36669;51.428;21.162;2022-08-21T15:04:27;4.97;;;2.38;;
44885;SDS011;36669;51.428;21.162;2022-08-21T15:06:53;4.10;;;2.60;;
44885;SDS011;36669;51.428;21.162;2022-08-21T15:09:18;3.10;;;2.33;;
44885;SDS011;36669;51.428;21.162;2022-08-21T15:11:44;3.75;;;2.40;;
44885;SDS011;36669;51.428;21.162;2022-08-21T15:14:11;4.63;;;2.40;;
44885;SDS011;36669;51.428;21.162;2022-08-21T15:16:44;4.38;;;2.97;;
44885;SDS011;36669;51.428;21.162;2022-08-21T15:19:12;5.45;;;2.70;;
44885;SDS011;36669;51.428;21.162;2022-08-21T15:21:39;6.57;;;5.32;;
44885;SDS011;36669;51.428;21.162;2022-08-21T15:24:04;4.68;;;2.80;;
44885;SDS011;36669;51.428;21.162;2022-08-21T15:26:30;3.90;;;2.45;;
44885;SDS011;36669;51.428;21.162;2022-08-21T15:28:56;2.88;;;2.58;;
44885;SDS011;36669;51.428;21.162;2022-08-21T15:31:22;5.13;;;2.55;;
44885;SDS011;36669;51.428;21.162;2022-08-21T15:33:48;4.03;;;2.70;;
44885;SDS011;36669;51.428;21.162;2022-08-21T15:36:13;3.50;;;2.55;;
44885;SDS011;36669;51.428;21.162;2022-08-21T15:38:39;2.78;;;2.40;;
44885;SDS011;36669;51.428;21.162;2022-08-21T15:41:04;4.13;;;2.70;;
44885;SDS011;36669;51.428;21.162;2022-08-21T15:43:40;4.15;;;2.40;;
44885;SDS011;36669;51.428;21.162;2022-08-21T15:46:16;3.47;;;2.67;;
44885;SDS011;36669;51.428;21.162;2022-08-21T15:48:43;5.07;;;2.50;;
44885;SDS011;36669;51.428;21.162;2022-08-21T15:51:10;3.45;;;2.90;;
44885;SDS011;36669;51.428;21.162;2022-08-21T15:53:35;4.90;;;2.78;;
44885;SDS011;36669;51.428;21.162;2022-08-21T15:56:01;2.80;;;2.55;;